Time;durP1;ratioP1;P1;durP2;ratioP2;P2;SDS_P1;SDS_P2;PMS_P1;PMS_P2;Temp;Humidity;BMP_temperature;BMP_pressure;BME280_temperature;BME280_humidity;BME280_pressure;Samples;Min_cycle;Max_cycle;Signal;HPM_P1;HPM_P2
2022/03/07 00:01:59;;;;;;;10.40;5.60;;;1.50;99.90;;;;;;5171860;28;20475;-50
2022/03/07 00:04:30;;;;;;;10.47;4.83;;;1.40;99.90;;;;;;5177270;28;20303;-50
2022/03/07 00:07:00;;;;;;;5.20;4.70;;;1.40;99.90;;;;;;5173698;28;20530;-50
2022/03/07 00:09:31;;;;;;;8.80;4.53;;;1.40;99.90;;;;;;5175458;28;20187;-52
2022/03/07 00:12:02;;;;;;;5.13;4.50;;;1.40;99.90;;;;;;5175125;28;20193;-51
2022/03/07 00:14:32;;;;;;;6.90;4.77;;;1.40;99.90;;;;;;5176221;28;20650;-51
2022/03/07 00:17:03;;;;;;;6.00;4.53;;;1.40;99.90;;;;;;5174365;28;20246;-51
2022/03/07 00:19:33;;;;;;;8.97;4.33;;;1.50;99.90;;;;;;5178584;28;20187;-49
2022/03/07 00:22:04;;;;;;;6.20;4.10;;;1.50;99.90;;;;;;5180334;28;20231;-50
2022/03/07 00:24:34;;;;;;;5.63;4.77;;;1.50;99.90;;;;;;5178768;28;20652;-50
2022/03/07 00:27:05;;;;;;;10.17;4.50;;;1.50;99.90;;;;;;5182199;28;20586;-50
2022/03/07 00:29:35;;;;;;;7.33;3.97;;;1.50;99.90;;;;;;5180338;28;20300;-49
2022/03/07 00:32:06;;;;;;;4.70;4.10;;;1.50;99.90;;;;;;5181732;28;20241;-50
2022/03/07 00:34:37;;;;;;;5.20;4.57;;;1.40;99.90;;;;;;5177836;28;20204;-50
2022/03/07 00:37:07;;;;;;;8.07;5.53;;;1.50;99.90;;;;;;5180810;28;20203;-50
2022/03/07 00:39:38;;;;;;;8.80;4.70;;;1.30;99.90;;;;;;5181498;28;20180;-50
2022/03/07 00:42:09;;;;;;;10.23;5.43;;;1.30;99.90;;;;;;5183041;28;20260;-49
2022/03/07 00:44:40;;;;;;;5.33;4.83;;;1.30;99.90;;;;;;5180486;28;20453;-50
2022/03/07 00:47:10;;;;;;;8.93;6.23;;;1.20;99.90;;;;;;5180081;28;20179;-50
2022/03/07 00:49:41;;;;;;;15.87;5.33;;;1.20;99.90;;;;;;5175448;28;20180;-51
2022/03/07 00:52:11;;;;;;;7.63;4.90;;;1.20;99.90;;;;;;5177258;28;20184;-51
2022/03/07 00:54:42;;;;;;;4.97;4.40;;;1.10;99.90;;;;;;5181540;28;20219;-50
2022/03/07 00:57:12;;;;;;;4.83;3.90;;;1.00;99.90;;;;;;5180243;28;20238;-51
2022/03/07 00:59:43;;;;;;;13.27;5.63;;;0.90;99.90;;;;;;5176913;28;20199;-51
2022/03/07 01:02:14;;;;;;;8.40;5.07;;;0.80;99.90;;;;;;5178299;28;20211;-50
2022/03/07 01:04:44;;;;;;;7.13;4.23;;;0.80;99.90;;;;;;5179184;28;20232;-51
2022/03/07 01:07:15;;;;;;;8.63;5.10;;;0.70;99.90;;;;;;5177783;28;20185;-50
2022/03/07 01:09:45;;;;;;;7.93;4.80;;;0.70;99.90;;;;;;5179975;28;20226;-51
2022/03/07 01:12:16;;;;;;;8.90;4.80;;;0.60;99.90;;;;;;5177000;28;20181;-50
2022/03/07 01:14:46;;;;;;;9.47;5.00;;;0.50;99.90;;;;;;5182138;28;20217;-50
2022/03/07 01:17:17;;;;;;;5.30;4.80;;;0.50;99.90;;;;;;5175223;28;20236;-50
2022/03/07 01:19:47;;;;;;;6.10;4.10;;;0.50;99.90;;;;;;5175017;28;20536;-50
2022/03/07 01:22:18;;;;;;;4.53;4.10;;;0.60;99.90;;;;;;5163177;28;20246;-51
2022/03/07 01:24:48;;;;;;;8.27;4.10;;;0.60;99.90;;;;;;5178119;28;20225;-50
2022/03/07 01:27:19;;;;;;;5.07;4.50;;;0.70;99.90;;;;;;5178647;28;20540;-49
2022/03/07 01:29:49;;;;;;;6.00;4.77;;;0.60;99.90;;;;;;5183488;28;20212;-50
2022/03/07 01:32:20;;;;;;;7.67;4.33;;;0.70;99.90;;;;;;5180255;28;20177;-50
2022/03/07 01:34:51;;;;;;;4.23;3.83;;;0.60;99.90;;;;;;5179166;28;20269;-49
2022/03/07 01:37:22;;;;;;;4.17;3.77;;;0.60;99.90;;;;;;5177477;28;20745;-50
2022/03/07 01:39:52;;;;;;;5.90;4.10;;;0.60;99.90;;;;;;5180975;28;20187;-49
2022/03/07 01:42:23;;;;;;;6.00;4.30;;;0.60;99.90;;;;;;5181191;28;20624;-50
2022/03/07 01:44:54;;;;;;;5.00;4.33;;;0.50;99.90;;;;;;5182249;28;20240;-49
2022/03/07 01:47:25;;;;;;;5.70;4.50;;;0.50;99.90;;;;;;5178549;28;20255;-49
2022/03/07 01:49:56;;;;;;;8.93;4.53;;;0.40;99.90;;;;;;5181702;28;20310;-50
2022/03/07 01:52:27;;;;;;;7.40;5.03;;;0.40;99.90;;;;;;5162890;28;20939;-50
2022/03/07 01:54:57;;;;;;;8.13;5.73;;;0.40;99.90;;;;;;5179535;28;20231;-49
2022/03/07 01:57:30;;;;;;;6.70;4.87;;;0.50;99.90;;;;;;5179483;28;20468;-50
2022/03/07 02:00:00;;;;;;;8.03;4.57;;;0.50;99.90;;;;;;5182322;28;20177;-50
2022/03/07 02:02:31;;;;;;;8.23;4.20;;;0.60;99.90;;;;;;5175141;28;20662;-50
2022/03/07 02:05:03;;;;;;;5.10;4.47;;;0.70;99.90;;;;;;5170689;28;21634;-50
2022/03/07 02:07:33;;;;;;;5.93;4.87;;;0.70;99.90;;;;;;5181300;28;20187;-50
2022/03/07 02:10:05;;;;;;;5.50;4.27;;;0.80;99.90;;;;;;5182078;28;20442;-51
2022/03/07 02:12:36;;;;;;;5.63;4.20;;;0.80;99.90;;;;;;5176415;28;20177;-50
2022/03/07 02:15:07;;;;;;;6.53;4.77;;;0.90;99.90;;;;;;5181582;28;20810;-50
2022/03/07 02:17:42;;;;;;;6.17;4.80;;;0.90;99.90;;;;;;5180023;28;20185;-51
2022/03/07 02:20:14;;;;;;;4.90;4.33;;;0.90;99.90;;;;;;5179598;28;20450;-51
2022/03/07 02:22:44;;;;;;;3.83;3.47;;;1.00;99.90;;;;;;5178695;28;21010;-51
2022/03/07 02:25:15;;;;;;;5.50;4.27;;;1.00;99.90;;;;;;5182156;28;20454;-49
2022/03/07 02:27:45;;;;;;;5.30;4.80;;;0.90;99.90;;;;;;5178360;28;20184;-50
2022/03/07 02:30:16;;;;;;;7.57;3.60;;;0.90;99.90;;;;;;5179610;28;20287;-51
2022/03/07 02:32:47;;;;;;;5.90;3.87;;;0.90;99.90;;;;;;5178573;28;20176;-51
2022/03/07 02:35:17;;;;;;;4.10;3.70;;;0.80;99.90;;;;;;5180499;28;20533;-50
2022/03/07 02:37:47;;;;;;;5.10;4.60;;;0.70;99.90;;;;;;5174930;28;20185;-50
2022/03/07 02:40:20;;;;;;;5.50;3.97;;;0.50;99.90;;;;;;5178539;28;20176;-51
2022/03/07 02:42:50;;;;;;;7.13;4.30;;;0.50;99.90;;;;;;5179102;28;20190;-49
2022/03/07 02:45:21;;;;;;;4.77;4.27;;;0.40;99.90;;;;;;5173984;28;21059;-50
2022/03/07 02:47:51;;;;;;;4.23;3.83;;;0.30;99.90;;;;;;5174210;28;20185;-50
2022/03/07 02:50:22;;;;;;;6.40;4.33;;;0.30;99.90;;;;;;5178324;28;21041;-50
2022/03/07 02:52:52;;;;;;;4.33;3.93;;;0.20;99.90;;;;;;5180720;28;20197;-50
2022/03/07 02:55:23;;;;;;;4.40;4.00;;;0.20;99.90;;;;;;5181370;28;20567;-50
2022/03/07 02:57:54;;;;;;;6.07;4.90;;;0.20;99.90;;;;;;5177362;28;20611;-49
2022/03/07 03:00:25;;;;;;;4.33;3.90;;;0.10;99.90;;;;;;5178876;28;20614;-50
2022/03/07 03:02:56;;;;;;;3.97;3.63;;;0.10;99.90;;;;;;5179644;28;20194;-49
2022/03/07 03:05:26;;;;;;;5.50;4.43;;;0.00;99.90;;;;;;5177962;28;20259;-50
2022/03/07 03:07:57;;;;;;;4.30;3.70;;;0.00;99.90;;;;;;5179487;28;20494;-50
2022/03/07 03:10:27;;;;;;;7.70;4.00;;;0.00;99.90;;;;;;5176134;28;20269;-50
2022/03/07 03:12:58;;;;;;;5.20;4.80;;;-0.10;99.90;;;;;;5174670;28;20750;-50
2022/03/07 03:15:28;;;;;;;11.17;5.10;;;-0.10;99.90;;;;;;5234330;22;20293;-47
2022/03/07 03:17:59;;;;;;;4.37;4.00;;;-0.10;99.90;;;;;;5252692;28;20715;-48
2022/03/07 03:20:29;;;;;;;6.70;4.30;;;-0.10;99.90;;;;;;5287143;28;20593;-48
2022/03/07 03:23:00;;;;;;;4.87;4.53;;;-0.10;99.90;;;;;;5269937;28;20579;-47
2022/03/07 03:25:31;;;;;;;5.03;4.50;;;-0.10;99.90;;;;;;5288476;28;20219;-47
2022/03/07 03:28:01;;;;;;;5.07;4.63;;;-0.10;99.90;;;;;;5264579;28;20230;-46
2022/03/07 03:30:33;;;;;;;5.80;4.40;;;-0.20;99.90;;;;;;5262082;28;20315;-47
2022/03/07 03:33:04;;;;;;;7.73;4.60;;;-0.20;99.90;;;;;;5267800;28;20209;-47
2022/03/07 03:35:38;;;;;;;4.07;3.87;;;-0.20;99.90;;;;;;5285564;28;20805;-47
2022/03/07 03:38:08;;;;;;;6.53;4.80;;;-0.20;99.90;;;;;;5274881;28;20836;-47
2022/03/07 03:40:39;;;;;;;11.43;6.03;;;-0.20;99.90;;;;;;5267058;28;20450;-47
2022/03/07 03:43:10;;;;;;;7.17;5.67;;;-0.30;99.90;;;;;;5265493;28;20177;-47
2022/03/07 03:45:40;;;;;;;7.03;4.43;;;-0.30;99.90;;;;;;5278391;28;20490;-48
2022/03/07 03:48:11;;;;;;;7.00;4.97;;;-0.30;99.90;;;;;;5285113;28;20689;-47
2022/03/07 03:50:42;;;;;;;6.83;5.40;;;-0.30;99.90;;;;;;5281651;28;20184;-47
2022/03/07 03:53:12;;;;;;;5.53;5.03;;;-0.40;99.90;;;;;;5285485;28;20256;-47
2022/03/07 03:55:43;;;;;;;7.83;5.23;;;-0.40;99.90;;;;;;5262295;28;20205;-47
2022/03/07 03:58:13;;;;;;;6.50;5.37;;;-0.40;99.90;;;;;;5267145;28;20204;-47
2022/03/07 04:00:44;;;;;;;8.60;4.97;;;-0.50;99.90;;;;;;5277761;27;20222;-47
2022/03/07 04:03:14;;;;;;;6.73;5.90;;;-0.50;99.90;;;;;;5269154;27;20693;-48
2022/03/07 04:05:45;;;;;;;7.77;6.20;;;-0.40;99.90;;;;;;5268608;28;20189;-48
2022/03/07 04:08:15;;;;;;;14.90;6.07;;;-0.30;99.90;;;;;;5290159;28;20422;-48
2022/03/07 04:10:46;;;;;;;7.50;6.80;;;-0.30;99.90;;;;;;5285565;27;20185;-48
2022/03/07 04:13:16;;;;;;;8.70;5.57;;;-0.20;99.90;;;;;;5286309;28;20572;-47
2022/03/07 04:15:48;;;;;;;7.10;6.27;;;-0.20;99.90;;;;;;5270214;28;20220;-48
2022/03/07 04:18:19;;;;;;;11.90;7.43;;;-0.20;99.90;;;;;;5288584;28;20222;-49
2022/03/07 04:20:49;;;;;;;10.23;6.67;;;-0.30;99.90;;;;;;5265913;28;20795;-48
2022/03/07 04:23:21;;;;;;;19.40;7.50;;;-0.40;99.90;;;;;;5289855;28;20169;-48
2022/03/07 04:25:51;;;;;;;6.67;4.97;;;-0.40;99.90;;;;;;5286898;27;20190;-48
2022/03/07 04:28:22;;;;;;;6.47;5.87;;;-0.40;99.90;;;;;;5288225;27;20804;-47
2022/03/07 04:30:52;;;;;;;12.97;6.27;;;-0.40;99.90;;;;;;5268603;28;20671;-47
2022/03/07 04:33:23;;;;;;;16.43;6.90;;;-0.50;99.90;;;;;;5238346;28;20185;-49
2022/03/07 04:35:53;;;;;;;10.20;6.70;;;-0.50;99.90;;;;;;5271401;28;20201;-48
2022/03/07 04:38:26;;;;;;;10.53;7.80;;;-0.60;99.90;;;;;;5268243;28;20197;-46
2022/03/07 04:40:57;;;;;;;14.03;7.10;;;-0.70;99.90;;;;;;5253612;28;20268;-46
2022/03/07 04:43:27;;;;;;;7.87;6.77;;;-0.60;99.90;;;;;;5285278;28;20894;-46
2022/03/07 04:45:58;;;;;;;8.23;7.23;;;-0.60;99.90;;;;;;5288279;28;20255;-46
2022/03/07 04:48:29;;;;;;;14.10;7.67;;;-0.60;99.90;;;;;;5272378;27;20180;-46
2022/03/07 04:50:59;;;;;;;13.17;7.70;;;-0.60;99.90;;;;;;5266898;28;20805;-46
2022/03/07 04:53:30;;;;;;;14.90;7.40;;;-0.60;99.90;;;;;;5284450;27;20551;-47
2022/03/07 04:56:01;;;;;;;13.03;6.53;;;-0.60;99.90;;;;;;5268572;28;20211;-48
2022/03/07 04:58:32;;;;;;;10.80;7.07;;;-0.60;99.90;;;;;;5288657;28;20437;-47
2022/03/07 05:01:02;;;;;;;10.73;7.00;;;-0.60;99.90;;;;;;5279143;27;20216;-47
2022/03/07 05:03:33;;;;;;;16.90;8.90;;;-0.60;99.90;;;;;;5289260;28;20276;-46
2022/03/07 05:06:04;;;;;;;15.40;7.87;;;-0.60;99.90;;;;;;5290197;28;20231;-47
2022/03/07 05:08:38;;;;;;;7.57;6.93;;;-0.60;99.90;;;;;;5283193;28;20189;-48
2022/03/07 05:11:09;;;;;;;11.00;6.90;;;-0.60;99.90;;;;;;5265428;28;20439;-46
2022/03/07 05:13:39;;;;;;;9.10;7.10;;;-0.60;99.90;;;;;;5286293;28;20423;-46
2022/03/07 05:16:11;;;;;;;17.13;6.87;;;-0.70;99.90;;;;;;5290037;28;20204;-47
2022/03/07 05:18:41;;;;;;;8.60;6.43;;;-0.70;99.90;;;;;;5285635;27;20189;-46
2022/03/07 05:21:12;;;;;;;13.50;7.53;;;-0.70;99.90;;;;;;5263390;28;20459;-46
2022/03/07 05:23:42;;;;;;;8.87;6.13;;;-0.70;99.90;;;;;;5288303;27;20178;-47
2022/03/07 05:26:13;;;;;;;12.50;7.00;;;-0.70;99.90;;;;;;5286641;27;20216;-46
2022/03/07 05:28:43;;;;;;;8.73;7.83;;;-0.80;99.90;;;;;;5287270;27;20235;-47
2022/03/07 05:31:15;;;;;;;11.80;7.80;;;-0.70;99.90;;;;;;5284072;27;20193;-48
2022/03/07 05:33:45;;;;;;;13.93;7.97;;;-0.80;99.90;;;;;;5278979;28;20178;-47
2022/03/07 05:36:16;;;;;;;8.17;6.40;;;-0.80;99.90;;;;;;5268638;28;20507;-47
2022/03/07 05:38:47;;;;;;;10.53;8.63;;;-0.80;99.90;;;;;;5271341;28;20188;-48
2022/03/07 05:41:17;;;;;;;10.90;9.00;;;-0.80;99.90;;;;;;5287198;27;20703;-49
2022/03/07 05:43:48;;;;;;;13.23;8.70;;;-0.70;99.90;;;;;;5287766;28;20177;-47
2022/03/07 05:46:18;;;;;;;10.33;7.80;;;-0.70;99.90;;;;;;5265002;28;20231;-52
2022/03/07 05:48:49;;;;;;;13.97;8.80;;;-0.70;99.90;;;;;;5288798;28;20684;-47
2022/03/07 05:51:23;;;;;;;14.03;8.90;;;-0.70;99.90;;;;;;5284979;27;20238;-48
2022/03/07 05:53:54;;;;;;;15.33;9.10;;;-0.70;99.90;;;;;;5286980;27;20168;-47
2022/03/07 05:56:24;;;;;;;17.60;9.67;;;-0.60;99.90;;;;;;5270223;28;20442;-47
2022/03/07 05:58:55;;;;;;;19.83;10.17;;;-0.60;99.90;;;;;;5288699;27;20666;-48
2022/03/07 06:01:25;;;;;;;15.70;9.20;;;-0.40;99.90;;;;;;5286643;27;20212;-48
2022/03/07 06:03:56;;;;;;;18.67;9.10;;;-0.50;99.90;;;;;;5262198;28;20676;-48
2022/03/07 06:06:26;;;;;;;22.63;8.40;;;-0.40;99.90;;;;;;5280850;28;20250;-46
2022/03/07 06:08:57;;;;;;;9.70;8.70;;;-0.40;99.90;;;;;;5266880;28;20624;-45
2022/03/07 06:11:27;;;;;;;18.23;9.13;;;-0.30;99.90;;;;;;5285862;27;20651;-48
2022/03/07 06:13:58;;;;;;;15.60;8.50;;;-0.10;99.90;;;;;;5283783;28;20192;-47
2022/03/07 06:16:28;;;;;;;12.57;8.30;;;0.00;99.90;;;;;;5267845;28;20601;-46
2022/03/07 06:18:59;;;;;;;15.13;7.63;;;0.10;99.90;;;;;;5281692;27;20188;-46
2022/03/07 06:21:30;;;;;;;11.67;8.10;;;0.20;99.90;;;;;;5263644;28;20215;-47
2022/03/07 06:24:00;;;;;;;12.90;7.90;;;0.30;99.90;;;;;;5278265;28;20618;-50
2022/03/07 06:26:31;;;;;;;10.33;7.80;;;0.40;99.90;;;;;;5276406;28;20191;-47
2022/03/07 06:29:03;;;;;;;11.17;7.93;;;0.50;99.90;;;;;;5274460;28;20207;-48
2022/03/07 06:31:33;;;;;;;15.13;9.20;;;0.60;99.90;;;;;;5289561;27;20180;-48
2022/03/07 06:34:04;;;;;;;13.50;7.97;;;0.60;99.90;;;;;;5253252;27;20578;-46
2022/03/07 06:36:34;;;;;;;20.00;8.40;;;0.80;99.90;;;;;;5266625;28;20192;-47
2022/03/07 06:39:05;;;;;;;8.50;7.10;;;1.30;99.90;;;;;;5285983;27;20177;-47
2022/03/07 06:41:36;;;;;;;8.33;7.53;;;2.60;99.90;;;;;;5263823;28;20405;-46
2022/03/07 06:44:06;;;;;;;24.73;17.80;;;4.50;99.90;;;;;;5279523;27;20435;-47
2022/03/07 06:46:37;;;;;;;13.93;7.43;;;6.20;99.90;;;;;;5264219;28;20211;-47
2022/03/07 06:49:07;;;;;;;16.47;8.00;;;7.50;80.30;;;;;;5267789;28;20169;-48
2022/03/07 06:51:38;;;;;;;8.90;6.97;;;8.40;68.70;;;;;;5278622;28;20223;-49
2022/03/07 06:54:08;;;;;;;9.80;6.80;;;9.30;62.20;;;;;;5259582;28;20251;-47
2022/03/07 06:56:39;;;;;;;10.30;7.10;;;10.30;56.20;;;;;;5260006;28;20200;-46
2022/03/07 06:59:09;;;;;;;13.93;8.17;;;11.10;52.70;;;;;;5275319;28;20180;-49
2022/03/07 07:01:40;;;;;;;11.40;7.57;;;11.90;50.40;;;;;;5257263;28;20292;-47
2022/03/07 07:04:11;;;;;;;11.20;7.20;;;12.70;47.50;;;;;;5279839;28;20603;-48
2022/03/07 07:06:41;;;;;;;10.53;7.37;;;13.30;45.20;;;;;;5259225;28;20185;-47
2022/03/07 07:09:12;;;;;;;10.20;6.70;;;13.80;43.80;;;;;;5282499;28;20290;-48
2022/03/07 07:11:42;;;;;;;17.70;7.50;;;14.20;42.50;;;;;;5262291;28;20652;-48
2022/03/07 07:14:13;;;;;;;14.47;8.07;;;14.60;41.10;;;;;;5280283;28;20652;-48
2022/03/07 07:16:43;;;;;;;11.67;7.87;;;14.90;40.30;;;;;;5263804;28;20200;-49
2022/03/07 07:19:14;;;;;;;11.03;7.50;;;15.00;40.10;;;;;;5276997;28;20209;-48
2022/03/07 07:21:44;;;;;;;10.13;6.83;;;15.10;39.20;;;;;;5274980;28;20559;-48
2022/03/07 07:24:15;;;;;;;11.00;7.83;;;15.10;39.40;;;;;;5281638;28;20235;-48
2022/03/07 07:26:45;;;;;;;12.30;7.30;;;14.90;39.60;;;;;;5280714;28;20204;-48
2022/03/07 07:29:16;;;;;;;14.80;7.47;;;14.50;39.60;;;;;;5279395;28;20206;-49
2022/03/07 07:31:47;;;;;;;15.53;7.57;;;14.40;40.40;;;;;;5255801;28;20753;-47
2022/03/07 07:34:18;;;;;;;17.50;8.13;;;14.70;40.20;;;;;;5264698;28;20192;-48
2022/03/07 07:36:49;;;;;;;15.03;8.23;;;15.10;39.20;;;;;;5264219;28;20438;-49
2022/03/07 07:39:20;;;;;;;15.00;11.90;;;15.10;38.60;;;;;;5288864;27;20990;-49
2022/03/07 07:41:50;;;;;;;10.80;7.40;;;15.20;39.00;;;;;;5280169;27;20207;-49
2022/03/07 07:44:21;;;;;;;11.00;7.67;;;15.40;38.70;;;;;;5277383;27;20183;-48
2022/03/07 07:46:52;;;;;;;8.03;6.90;;;15.70;38.30;;;;;;5282716;28;20204;-47
2022/03/07 07:49:24;;;;;;;22.80;7.60;;;15.80;37.50;;;;;;5289257;27;20169;-49
2022/03/07 07:51:55;;;;;;;17.90;8.10;;;15.90;37.40;;;;;;5284422;28;20187;-48
2022/03/07 07:54:25;;;;;;;19.87;8.30;;;15.50;37.60;;;;;;5264639;28;20462;-47
2022/03/07 07:56:56;;;;;;;12.57;7.10;;;14.70;39.20;;;;;;5262138;28;20189;-48
2022/03/07 07:59:26;;;;;;;11.30;8.30;;;13.60;40.80;;;;;;5286684;27;20212;-47
2022/03/07 08:01:57;;;;;;;9.90;6.73;;;11.50;43.60;;;;;;5266259;27;20724;-47
2022/03/07 08:04:27;;;;;;;15.60;8.23;;;9.60;48.00;;;;;;5282517;28;20249;-48
2022/03/07 08:06:58;;;;;;;13.80;8.00;;;8.10;51.70;;;;;;5283776;28;20181;-47
2022/03/07 08:09:28;;;;;;;14.30;8.00;;;6.90;55.60;;;;;;5266678;28;20192;-46
2022/03/07 08:11:59;;;;;;;10.63;7.87;;;5.90;68.10;;;;;;5266592;28;20285;-47
2022/03/07 08:14:29;;;;;;;12.80;8.50;;;5.30;92.90;;;;;;5262289;28;21673;-47
2022/03/07 08:17:00;;;;;;;10.57;7.73;;;4.90;99.90;;;;;;5281880;27;20636;-48
2022/03/07 08:19:31;;;;;;;18.70;8.23;;;4.70;99.90;;;;;;5263759;28;20530;-47
2022/03/07 08:22:01;;;;;;;10.20;7.10;;;4.50;99.90;;;;;;5282628;27;20220;-46
2022/03/07 08:24:32;;;;;;;13.67;8.17;;;4.30;99.90;;;;;;5260529;28;20213;-47
2022/03/07 08:27:03;;;;;;;9.83;8.30;;;4.20;99.90;;;;;;5263011;28;20581;-47
2022/03/07 08:29:33;;;;;;;10.30;7.63;;;4.20;99.90;;;;;;5279756;28;20303;-48
2022/03/07 08:32:04;;;;;;;11.33;7.57;;;4.20;99.90;;;;;;5289128;28;20520;-47
2022/03/07 08:34:35;;;;;;;18.63;7.90;;;4.20;99.90;;;;;;5283453;28;20694;-47
2022/03/07 08:37:06;;;;;;;17.70;7.90;;;4.10;99.90;;;;;;5262041;28;20615;-47
2022/03/07 08:39:36;;;;;;;11.93;6.80;;;4.10;99.90;;;;;;5285064;27;20624;-48
2022/03/07 08:42:07;;;;;;;18.53;8.63;;;4.00;99.90;;;;;;5282530;27;20212;-49
2022/03/07 08:44:38;;;;;;;16.13;7.77;;;3.90;99.90;;;;;;5283783;28;20205;-48
2022/03/07 08:47:09;;;;;;;12.40;7.83;;;4.00;99.90;;;;;;5260855;28;20190;-47
2022/03/07 08:49:40;;;;;;;13.83;7.37;;;4.00;99.90;;;;;;5268011;28;20178;-47
2022/03/07 08:52:10;;;;;;;20.33;7.13;;;4.10;99.90;;;;;;5285348;27;20438;-47
2022/03/07 08:54:42;;;;;;;19.60;7.50;;;4.20;99.90;;;;;;5284833;27;20255;-47
2022/03/07 08:57:13;;;;;;;12.33;7.63;;;4.10;99.90;;;;;;5267037;28;20188;-48
2022/03/07 08:59:44;;;;;;;13.37;7.10;;;4.20;99.90;;;;;;5282091;27;20464;-47
2022/03/07 09:02:14;;;;;;;14.10;7.80;;;4.30;99.90;;;;;;5284395;27;20573;-48
2022/03/07 09:04:45;;;;;;;10.50;7.40;;;4.40;99.90;;;;;;5268250;28;20206;-48
2022/03/07 09:07:16;;;;;;;9.10;7.37;;;4.40;99.90;;;;;;5261383;28;20279;-48
2022/03/07 09:09:46;;;;;;;16.90;5.87;;;4.60;99.90;;;;;;5282574;27;20622;-48
2022/03/07 09:12:17;;;;;;;8.63;6.20;;;4.70;99.90;;;;;;5281268;28;20236;-48
2022/03/07 09:14:48;;;;;;;12.00;6.37;;;4.60;99.90;;;;;;5281320;27;20255;-48
2022/03/07 09:17:19;;;;;;;8.10;5.60;;;4.70;99.90;;;;;;5282519;27;20438;-50
2022/03/07 09:19:50;;;;;;;10.50;6.17;;;4.70;99.90;;;;;;5261730;28;20675;-48
2022/03/07 09:22:20;;;;;;;10.37;5.67;;;4.70;99.90;;;;;;5281662;28;20575;-47
2022/03/07 09:24:51;;;;;;;7.20;5.50;;;4.60;99.20;;;;;;5263931;28;20463;-49
2022/03/07 09:27:22;;;;;;;6.90;6.00;;;4.70;99.30;;;;;;5284638;27;20536;-48
2022/03/07 09:29:52;;;;;;;8.83;6.07;;;4.70;99.20;;;;;;5266210;28;20454;-50
2022/03/07 09:32:23;;;;;;;7.40;5.20;;;4.80;99.90;;;;;;5282164;28;20648;-49
2022/03/07 09:34:53;;;;;;;6.70;6.10;;;4.80;99.80;;;;;;5279214;28;20202;-48
2022/03/07 09:37:24;;;;;;;7.50;5.17;;;4.90;97.90;;;;;;5276409;27;20196;-50
2022/03/07 09:39:55;;;;;;;6.40;5.40;;;4.90;97.90;;;;;;5281006;27;20197;-49
2022/03/07 09:42:26;;;;;;;7.40;6.07;;;4.90;98.00;;;;;;5280678;27;20213;-48
2022/03/07 09:44:57;;;;;;;9.73;6.00;;;5.00;98.80;;;;;;5279681;27;20356;-48
2022/03/07 09:47:29;;;;;;;8.93;6.00;;;5.10;98.00;;;;;;5265066;28;20516;-48
2022/03/07 09:49:59;;;;;;;6.33;4.90;;;5.20;98.00;;;;;;5285263;27;20183;-49
2022/03/07 09:52:30;;;;;;;6.97;5.63;;;5.30;97.40;;;;;;5262803;28;20438;-47
2022/03/07 09:55:01;;;;;;;6.67;5.40;;;5.30;96.50;;;;;;5279787;27;20555;-48
2022/03/07 09:57:32;;;;;;;8.73;4.90;;;5.40;96.20;;;;;;5262677;28;20203;-47
2022/03/07 10:00:03;;;;;;;10.53;5.87;;;5.40;96.00;;;;;;5264069;28;20219;-48
2022/03/07 10:02:34;;;;;;;13.90;7.13;;;5.40;96.30;;;;;;5262385;28;20527;-49
2022/03/07 10:05:05;;;;;;;6.33;5.63;;;5.60;96.20;;;;;;5286180;27;20438;-47
2022/03/07 10:07:44;;;;;;;5.53;5.03;;;5.60;94.70;;;;;;5277670;28;20570;-50
2022/03/07 10:10:14;;;;;;;8.30;5.07;;;5.70;94.90;;;;;;5275189;28;20532;-49
2022/03/07 10:12:47;;;;;;;12.37;5.87;;;5.80;94.80;;;;;;5282181;28;20430;-50
2022/03/07 10:15:20;;;;;;;5.63;5.10;;;5.80;93.60;;;;;;5279003;28;20703;-48
2022/03/07 10:17:53;;;;;;;6.37;5.50;;;5.70;93.50;;;;;;5265686;28;20442;-48
2022/03/07 10:20:26;;;;;;;8.00;4.97;;;5.60;93.90;;;;;;5277108;27;20446;-48
2022/03/07 10:22:59;;;;;;;7.90;5.20;;;5.70;93.80;;;;;;5264699;27;20441;-48
2022/03/07 10:25:31;;;;;;;5.83;5.07;;;5.70;94.30;;;;;;5279199;28;20484;-48
2022/03/07 10:28:03;;;;;;;6.43;5.33;;;5.70;94.20;;;;;;5265997;28;20426;-49
2022/03/07 10:30:34;;;;;;;5.10;4.57;;;5.80;92.90;;;;;;5282221;27;20426;-51
2022/03/07 10:33:11;;;;;;;6.73;5.27;;;5.90;93.10;;;;;;5279261;28;20426;-49
2022/03/07 10:35:47;;;;;;;7.47;5.50;;;5.90;92.50;;;;;;5279444;27;20672;-48
2022/03/07 10:38:20;;;;;;;7.63;5.27;;;6.00;91.30;;;;;;5241699;28;20957;-48
2022/03/07 10:40:55;;;;;;;8.80;5.07;;;6.10;90.60;;;;;;5261839;28;20466;-49
2022/03/07 10:43:25;;;;;;;5.23;4.73;;;6.10;89.80;;;;;;5262763;28;20437;-49
2022/03/07 10:45:59;;;;;;;7.20;5.67;;;6.10;86.10;;;;;;5276167;28;20464;-49
2022/03/07 10:48:41;;;;;;;6.37;4.87;;;6.20;85.50;;;;;;5264457;28;20181;-49
2022/03/07 10:51:16;;;;;;;5.67;4.90;;;6.20;86.70;;;;;;5243604;28;20442;-48
2022/03/07 10:53:47;;;;;;;17.13;6.97;;;6.20;85.90;;;;;;5281487;28;20523;-50
2022/03/07 10:56:21;;;;;;;6.90;5.60;;;6.20;85.20;;;;;;5278526;28;20498;-48
2022/03/07 10:58:53;;;;;;;5.17;4.67;;;6.20;83.80;;;;;;5281883;28;20492;-49
2022/03/07 11:01:31;;;;;;;11.10;7.60;;;6.40;83.00;;;;;;5276628;28;20658;-49
2022/03/07 11:04:02;;;;;;;5.13;4.63;;;6.40;82.50;;;;;;5252782;28;20525;-51
2022/03/07 11:06:32;;;;;;;4.23;4.00;;;6.30;82.10;;;;;;5280012;27;20463;-48
2022/03/07 11:09:03;;;;;;;8.70;4.90;;;6.40;79.00;;;;;;5275939;28;20206;-48
2022/03/07 11:11:34;;;;;;;5.60;5.10;;;6.60;74.60;;;;;;5261789;28;20184;-59
2022/03/07 11:14:05;;;;;;;4.60;3.93;;;6.70;74.50;;;;;;5284437;28;20593;-48
2022/03/07 11:16:38;;;;;;;6.80;4.97;;;6.80;72.50;;;;;;5264264;28;20226;-47
2022/03/07 11:19:10;;;;;;;6.60;4.20;;;7.00;68.20;;;;;;5279698;28;20439;-48
2022/03/07 11:21:41;;;;;;;9.50;7.57;;;7.00;65.80;;;;;;5261069;28;20488;-49
2022/03/07 11:24:12;;;;;;;5.00;4.27;;;6.80;65.20;;;;;;5275777;28;20965;-48
2022/03/07 11:26:43;;;;;;;4.20;3.93;;;6.80;66.40;;;;;;5281358;28;20441;-49
2022/03/07 11:29:15;;;;;;;13.07;8.33;;;6.70;64.30;;;;;;5260346;28;20196;-49
2022/03/07 11:31:46;;;;;;;4.43;4.03;;;6.70;63.30;;;;;;5244975;28;20442;-48
2022/03/07 11:34:17;;;;;;;3.30;3.10;;;6.80;62.20;;;;;;5277388;28;20464;-47
2022/03/07 11:36:49;;;;;;;51.30;24.77;;;6.90;62.80;;;;;;5277738;28;20430;-47
2022/03/07 11:39:49;;;;;;;5.80;5.20;;;7.10;63.50;;;;;;5273139;28;20187;-48
2022/03/07 11:42:20;;;;;;;7.60;5.43;;;7.10;63.10;;;;;;5241631;28;20470;-49
2022/03/07 11:44:51;;;;;;;4.90;4.40;;;7.10;63.40;;;;;;5259631;28;20818;-49
2022/03/07 11:47:22;;;;;;;4.40;4.00;;;7.20;60.30;;;;;;5279363;28;20207;-48
2022/03/07 11:50:00;;;;;;;3.50;3.23;;;7.20;56.40;;;;;;5261064;28;20173;-48
2022/03/07 11:52:31;;;;;;;3.63;3.33;;;7.30;55.00;;;;;;5273680;28;20466;-50
2022/03/07 11:55:12;;;;;;;4.00;2.63;;;7.30;54.00;;;;;;5278181;28;20458;-49
2022/03/07 11:57:48;;;;;;;5.50;2.80;;;7.40;54.00;;;;;;5269499;28;20567;-47
2022/03/07 12:00:26;;;;;;;3.90;2.70;;;7.50;54.30;;;;;;5264786;28;20911;-49
2022/03/07 12:03:10;;;;;;;2.93;2.77;;;7.60;52.10;;;;;;5258117;28;20465;-49
2022/03/07 12:05:43;;;;;;;3.67;3.37;;;7.60;51.10;;;;;;5263179;28;20887;-48
2022/03/07 12:08:16;;;;;;;8.33;4.70;;;7.60;51.90;;;;;;5279324;28;20439;-48
2022/03/07 12:11:06;;;;;;;7.33;4.27;;;7.60;52.00;;;;;;5281407;28;20514;-49
2022/03/07 12:13:49;;;;;;;6.57;3.70;;;7.60;51.80;;;;;;5279016;28;20930;-49
2022/03/07 12:16:28;;;;;;;2.40;2.17;;;7.70;51.60;;;;;;5261800;28;20486;-50
2022/03/07 12:19:22;;;;;;;4.23;3.83;;;7.70;50.80;;;;;;5276335;28;20429;-49
2022/03/07 12:21:53;;;;;;;2.97;2.77;;;7.70;50.50;;;;;;5259515;28;20446;-49
2022/03/07 12:24:24;;;;;;;4.20;3.13;;;7.90;50.80;;;;;;5267820;28;20430;-48
2022/03/07 12:26:56;;;;;;;3.30;3.00;;;7.90;51.00;;;;;;5284114;27;20177;-47
2022/03/07 12:29:27;;;;;;;2.23;2.13;;;7.90;50.90;;;;;;5262935;28;20442;-49
2022/03/07 12:32:03;;;;;;;3.87;3.00;;;8.00;50.90;;;;;;5277270;28;20431;-47
2022/03/07 12:34:37;;;;;;;3.20;2.90;;;8.20;50.10;;;;;;5265326;28;20855;-48
2022/03/07 12:37:20;;;;;;;9.53;6.97;;;8.30;50.00;;;;;;5281656;27;20965;-50
2022/03/07 12:39:54;;;;;;;9.03;3.00;;;8.40;46.10;;;;;;5266147;28;20532;-49
2022/03/07 12:42:30;;;;;;;6.73;5.10;;;8.30;45.00;;;;;;5283065;28;20501;-50
2022/03/07 12:45:01;;;;;;;8.57;4.70;;;8.40;44.40;;;;;;5260064;28;20455;-49
2022/03/07 12:47:35;;;;;;;3.07;2.80;;;8.30;44.80;;;;;;5283454;27;20426;-51
2022/03/07 12:50:08;;;;;;;3.80;2.70;;;8.20;45.20;;;;;;5284323;27;20462;-49
2022/03/07 12:52:40;;;;;;;2.33;1.97;;;8.30;45.70;;;;;;5267209;28;20427;-49
2022/03/07 12:55:14;;;;;;;2.27;2.07;;;8.30;45.50;;;;;;5268578;28;21011;-48
2022/03/07 12:57:45;;;;;;;1.73;1.63;;;8.20;45.20;;;;;;5284036;27;20437;-48
2022/03/07 13:00:16;;;;;;;2.30;2.10;;;8.20;45.40;;;;;;5281882;28;20465;-48
2022/03/07 13:02:52;;;;;;;2.43;2.23;;;8.30;44.90;;;;;;5285646;27;20908;-48
2022/03/07 13:05:23;;;;;;;5.00;2.47;;;8.30;45.60;;;;;;5286185;27;20454;-49
2022/03/07 13:07:59;;;;;;;2.40;2.07;;;8.40;44.90;;;;;;5280073;28;20518;-48
2022/03/07 13:10:31;;;;;;;8.80;2.23;;;8.30;44.60;;;;;;5267405;28;20427;-48
2022/03/07 13:13:04;;;;;;;2.20;1.97;;;8.20;44.40;;;;;;5264819;28;20431;-48